createdAt,value
2022-12-05T00:01:26.354Z,5.30
2022-12-05T00:03:55.743Z,5.20
2022-12-05T00:06:24.337Z,5.20
2022-12-05T00:08:51.804Z,5.20
2022-12-05T00:11:21.067Z,5.20
2022-12-05T00:13:48.656Z,5.30
2022-12-05T00:16:18.832Z,5.30
2022-12-05T00:18:46.515Z,5.20
2022-12-05T00:21:33.283Z,5.30
2022-12-05T00:24:01.111Z,5.10
2022-12-05T00:26:28.766Z,5.20
2022-12-05T00:28:56.569Z,5.20
2022-12-05T00:31:25.483Z,5.20
2022-12-05T00:33:53.289Z,5.10
2022-12-05T00:36:29.425Z,5.10
2022-12-05T00:38:58.610Z,5.10
2022-12-05T00:41:27.477Z,5.20
2022-12-05T00:43:56.041Z,5.20
2022-12-05T00:46:24.619Z,5.20
2022-12-05T00:48:53.786Z,5.20
2022-12-05T00:51:23.829Z,5.20
2022-12-05T00:53:50.874Z,5.20
2022-12-05T00:56:23.334Z,5.20
2022-12-05T00:58:52.611Z,5.20
2022-12-05T01:01:29.813Z,5.20
2022-12-05T01:03:58.574Z,5.20
2022-12-05T01:06:27.660Z,5.20
2022-12-05T01:08:55.951Z,5.20
2022-12-05T01:11:24.396Z,5.20
2022-12-05T01:13:51.871Z,5.30
2022-12-05T01:16:22.242Z,5.30
2022-12-05T01:18:49.347Z,5.10
2022-12-05T01:21:16.471Z,5.00
2022-12-05T01:23:43.700Z,5.10
2022-12-05T01:26:13.799Z,5.10
2022-12-05T01:28:42.440Z,5.10
2022-12-05T01:31:25.663Z,5.10
2022-12-05T01:33:54.348Z,5.10
2022-12-05T01:36:22.358Z,5.10
2022-12-05T01:38:49.400Z,5.10
2022-12-05T01:41:25.596Z,5.10
2022-12-05T01:44:06.312Z,5.10
2022-12-05T01:46:35.976Z,5.10
2022-12-05T01:49:13.381Z,5.10
2022-12-05T01:51:46.203Z,5.10
2022-12-05T01:54:15.036Z,5.20
2022-12-05T01:56:46.125Z,5.20
2022-12-05T01:59:14.148Z,5.20
2022-12-05T02:01:41.641Z,5.20
2022-12-05T02:04:10.060Z,5.20
2022-12-05T02:06:37.300Z,5.20
2022-12-05T02:09:04.164Z,5.30
2022-12-05T02:11:33.545Z,5.30
2022-12-05T02:14:34.275Z,5.30
2022-12-05T02:17:26.854Z,5.30
2022-12-05T02:20:18.719Z,5.20
2022-12-05T02:23:06.557Z,5.20
2022-12-05T02:26:05.710Z,5.20
2022-12-05T02:28:53.294Z,5.20
2022-12-05T02:31:30.465Z,5.10
2022-12-05T02:34:10.626Z,5.10
2022-12-05T02:36:45.187Z,5.20
2022-12-05T02:39:15.415Z,5.10
2022-12-05T02:41:53.143Z,5.20
2022-12-05T02:44:33.544Z,5.10
2022-12-05T02:47:01.151Z,5.10
2022-12-05T02:49:32.031Z,5.10
2022-12-05T02:52:01.787Z,5.10
2022-12-05T02:54:35.332Z,5.10
2022-12-05T02:57:02.802Z,5.10
2022-12-05T02:59:29.708Z,5.10
2022-12-05T03:01:57.055Z,5.00
2022-12-05T03:04:26.471Z,5.00
2022-12-05T03:07:12.302Z,5.00
2022-12-05T03:09:51.401Z,5.10
2022-12-05T03:12:23.186Z,5.00
2022-12-05T03:15:14.918Z,5.00
2022-12-05T03:18:11.321Z,5.00
2022-12-05T03:20:48.418Z,5.00
2022-12-05T03:23:30.817Z,5.10
2022-12-05T03:26:14.387Z,5.10
2022-12-05T03:28:58.021Z,5.10
2022-12-05T03:31:44.681Z,5.10
2022-12-05T03:34:20.973Z,5.10
2022-12-05T03:36:52.736Z,5.00
2022-12-05T03:39:27.701Z,5.00
2022-12-05T03:42:09.284Z,5.00
2022-12-05T03:44:54.417Z,5.10
2022-12-05T03:47:33.128Z,5.10
2022-12-05T03:50:07.684Z,5.10
2022-12-05T03:53:11.443Z,5.10
2022-12-05T03:55:33.660Z,5.10
2022-12-05T03:58:06.024Z,5.10
2022-12-05T04:00:37.737Z,5.20
2022-12-05T04:03:11.931Z,5.10
2022-12-05T04:05:44.491Z,5.10
2022-12-05T04:08:24.049Z,5.10
2022-12-05T04:10:53.579Z,5.10
2022-12-05T04:13:22.663Z,5.10
2022-12-05T04:16:22.080Z,5.10
2022-12-05T04:19:00.341Z,5.10
2022-12-05T04:21:40.916Z,5.10
2022-12-05T04:24:31.433Z,5.10
2022-12-05T04:27:30.196Z,5.10
2022-12-05T04:30:10.988Z,5.00
2022-12-05T04:32:45.044Z,5.10
2022-12-05T04:35:20.580Z,5.00
2022-12-05T04:37:51.624Z,5.00
2022-12-05T04:40:27.481Z,5.00
2022-12-05T04:42:56.583Z,5.00
2022-12-05T04:45:25.906Z,5.00
2022-12-05T04:47:57.295Z,5.00
2022-12-05T04:50:26.282Z,5.00
2022-12-05T04:52:57.592Z,4.90
2022-12-05T04:55:26.250Z,4.80
2022-12-05T04:58:03.340Z,4.80
2022-12-05T05:00:34.048Z,4.90
2022-12-05T05:03:39.683Z,4.90
2022-12-05T05:06:07.464Z,4.90
2022-12-05T05:08:34.243Z,4.90
2022-12-05T05:11:23.611Z,5.00
2022-12-05T05:13:50.869Z,5.00
2022-12-05T05:16:38.645Z,5.00
2022-12-05T05:19:07.143Z,5.10
2022-12-05T05:21:39.166Z,5.10
2022-12-05T05:24:09.417Z,5.00
2022-12-05T05:26:41.260Z,5.00
2022-12-05T05:29:09.638Z,5.10
2022-12-05T05:31:37.938Z,5.00
2022-12-05T05:34:09.363Z,5.00
2022-12-05T05:36:36.800Z,5.00
2022-12-05T05:39:05.384Z,4.90
2022-12-05T05:41:34.815Z,5.00
2022-12-05T05:44:02.156Z,5.00
2022-12-05T05:46:31.054Z,5.00
2022-12-05T05:48:58.206Z,5.00
2022-12-05T05:51:29.436Z,5.00
2022-12-05T05:53:57.292Z,5.00
2022-12-05T05:56:24.152Z,5.00
2022-12-05T05:59:01.969Z,5.00
2022-12-05T06:01:29.969Z,5.00
2022-12-05T06:03:57.805Z,5.00
2022-12-05T06:06:25.171Z,5.00
2022-12-05T06:08:51.990Z,5.00
2022-12-05T06:11:25.868Z,5.10
2022-12-05T06:13:55.789Z,5.10
2022-12-05T06:16:22.952Z,5.10
2022-12-05T06:18:50.126Z,5.10
2022-12-05T06:21:17.746Z,5.10
2022-12-05T06:23:45.308Z,5.00
2022-12-05T06:26:14.482Z,5.10
2022-12-05T06:28:41.556Z,5.10
2022-12-05T06:31:10.673Z,5.10
2022-12-05T06:33:37.994Z,5.10
2022-12-05T06:36:07.490Z,5.10
2022-12-05T06:38:36.901Z,5.10
2022-12-05T06:41:09.088Z,5.10
2022-12-05T06:43:35.963Z,5.10
2022-12-05T06:46:07.702Z,5.10
2022-12-05T06:48:34.932Z,5.00
2022-12-05T06:51:01.990Z,5.00
2022-12-05T06:53:29.302Z,5.10
2022-12-05T06:56:02.162Z,5.10
2022-12-05T06:58:29.552Z,5.10
2022-12-05T07:01:14.979Z,5.10
2022-12-05T07:03:44.070Z,5.10
2022-12-05T07:06:11.400Z,5.10
2022-12-05T07:08:38.604Z,5.10
2022-12-05T07:11:05.559Z,5.10
2022-12-05T07:13:32.713Z,5.10
2022-12-05T07:15:59.806Z,5.10
2022-12-05T07:18:27.303Z,5.10
2022-12-05T07:21:14.886Z,5.10
2022-12-05T07:23:43.806Z,5.10
2022-12-05T07:26:14.156Z,5.10
2022-12-05T07:28:41.032Z,5.10
2022-12-05T07:31:11.062Z,5.10
2022-12-05T07:33:38.558Z,5.10
2022-12-05T07:36:12.002Z,5.10
2022-12-05T07:38:39.641Z,5.10
2022-12-05T07:41:15.697Z,5.10
2022-12-05T07:43:42.568Z,5.20
2022-12-05T07:46:13.585Z,5.20
2022-12-05T07:48:40.911Z,5.30
2022-12-05T07:51:09.570Z,5.30
2022-12-05T07:53:37.632Z,5.30
2022-12-05T07:56:06.794Z,5.30
2022-12-05T07:58:34.566Z,5.30
2022-12-05T08:01:19.342Z,5.30
2022-12-05T08:03:47.021Z,5.30
2022-12-05T08:06:19.242Z,5.30
2022-12-05T08:08:49.946Z,5.30
2022-12-05T08:11:19.678Z,5.20
2022-12-05T08:13:46.754Z,5.20
2022-12-05T08:16:17.037Z,5.20
2022-12-05T08:18:44.546Z,5.20
2022-12-05T08:21:18.007Z,5.20
2022-12-05T08:23:45.787Z,5.20
2022-12-05T08:26:15.314Z,5.20
2022-12-05T08:28:43.600Z,5.30
2022-12-05T08:31:16.646Z,5.20
2022-12-05T08:33:43.952Z,5.20
2022-12-05T08:36:13.402Z,5.30
2022-12-05T08:38:40.254Z,5.30
2022-12-05T08:41:17.700Z,5.30
2022-12-05T08:43:45.108Z,5.30
2022-12-05T08:46:12.225Z,5.30
2022-12-05T08:48:39.630Z,5.30
2022-12-05T08:51:11.401Z,5.40
2022-12-05T08:53:44.079Z,5.40
2022-12-05T08:56:12.192Z,5.30
2022-12-05T08:58:39.290Z,5.30
2022-12-05T09:01:13.600Z,5.30
2022-12-05T09:03:47.352Z,5.30
2022-12-05T09:06:25.133Z,5.30
2022-12-05T09:08:57.285Z,5.30
2022-12-05T09:11:26.902Z,5.30
2022-12-05T09:13:55.857Z,5.40
2022-12-05T09:16:24.904Z,5.40
2022-12-05T09:18:52.344Z,5.40
2022-12-05T09:21:22.025Z,5.40
2022-12-05T09:23:49.519Z,5.40
2022-12-05T09:26:21.517Z,5.30
2022-12-05T09:28:48.370Z,5.30
2022-12-05T09:31:21.170Z,5.30
2022-12-05T09:33:49.679Z,5.30
2022-12-05T09:36:19.727Z,5.30
2022-12-05T09:38:47.325Z,5.30
2022-12-05T09:41:43.225Z,5.40
2022-12-05T09:44:27.846Z,5.40
2022-12-05T09:47:01.542Z,5.40
2022-12-05T09:49:30.680Z,5.40
2022-12-05T09:52:00.100Z,5.40
2022-12-05T09:54:28.330Z,5.50
2022-12-05T09:56:55.354Z,5.50
2022-12-05T09:59:22.241Z,5.50
2022-12-05T10:01:52.147Z,5.50
2022-12-05T10:04:18.980Z,5.60
2022-12-05T10:07:08.897Z,5.60
2022-12-05T10:09:59.779Z,5.60
2022-12-05T10:12:41.477Z,5.60
2022-12-05T10:15:29.582Z,5.60
2022-12-05T10:18:13.737Z,5.70
2022-12-05T10:21:05.662Z,5.70
2022-12-05T10:23:57.659Z,5.70
2022-12-05T10:26:38.430Z,5.60
2022-12-05T10:29:08.393Z,5.60
2022-12-05T10:31:38.276Z,5.60
2022-12-05T10:34:14.381Z,5.60
2022-12-05T10:36:53.382Z,5.60
2022-12-05T10:39:20.273Z,5.60
2022-12-05T10:41:47.131Z,5.60
2022-12-05T10:44:14.099Z,5.60
2022-12-05T10:46:40.989Z,5.60
2022-12-05T10:49:17.653Z,5.60
2022-12-05T10:51:45.045Z,5.60
2022-12-05T10:54:20.341Z,5.70
2022-12-05T10:56:52.762Z,5.70
2022-12-05T10:59:26.313Z,5.70
2022-12-05T11:01:59.840Z,5.70
2022-12-05T11:04:27.640Z,5.70
2022-12-05T11:07:04.647Z,5.70
2022-12-05T11:09:37.499Z,5.70
2022-12-05T11:12:27.212Z,5.70
2022-12-05T11:15:28.067Z,5.60
2022-12-05T11:17:57.256Z,5.60
2022-12-05T11:20:24.093Z,5.60
2022-12-05T11:22:53.667Z,5.60
2022-12-05T11:25:25.711Z,5.70
2022-12-05T11:27:54.930Z,5.60
2022-12-05T11:30:28.118Z,5.70
2022-12-05T11:33:21.286Z,5.70
2022-12-05T11:35:49.346Z,5.70
2022-12-05T11:38:18.412Z,5.70
2022-12-05T11:40:51.135Z,5.70
2022-12-05T11:43:39.663Z,5.70
2022-12-05T11:46:33.971Z,5.70
2022-12-05T11:49:34.511Z,5.60
2022-12-05T11:52:29.302Z,5.60
2022-12-05T11:55:16.286Z,5.70
2022-12-05T11:58:04.628Z,5.70
2022-12-05T12:00:47.155Z,5.60
2022-12-05T12:03:33.281Z,5.60
2022-12-05T12:06:06.626Z,5.70
2022-12-05T12:08:45.944Z,5.70
2022-12-05T12:11:24.669Z,5.70
2022-12-05T12:14:17.837Z,5.70
2022-12-05T12:16:59.361Z,5.80
2022-12-05T12:19:39.266Z,5.80
2022-12-05T12:22:48.499Z,5.80
2022-12-05T12:25:33.711Z,5.80
2022-12-05T12:28:04.521Z,5.70
2022-12-05T12:30:48.807Z,5.70
2022-12-05T12:33:27.225Z,5.80
2022-12-05T12:36:05.709Z,5.80
2022-12-05T12:38:52.330Z,5.80
2022-12-05T12:41:46.330Z,5.90
2022-12-05T12:44:32.039Z,5.90
2022-12-05T12:47:04.345Z,5.90
2022-12-05T12:49:36.151Z,5.90
2022-12-05T12:52:12.447Z,5.90
2022-12-05T12:55:04.291Z,5.90
2022-12-05T12:58:21.634Z,5.90
2022-12-05T13:01:25.413Z,5.80
2022-12-05T13:04:02.679Z,5.90
2022-12-05T13:06:40.188Z,5.90
2022-12-05T13:09:12.627Z,5.90
2022-12-05T13:11:44.486Z,5.90
2022-12-05T13:14:16.448Z,5.90
2022-12-05T13:16:49.149Z,5.90
2022-12-05T13:19:37.936Z,5.90
2022-12-05T13:22:07.392Z,5.90
2022-12-05T13:24:34.725Z,5.90
2022-12-05T13:27:10.209Z,5.90
2022-12-05T13:29:48.181Z,5.90
2022-12-05T13:32:36.379Z,5.90
2022-12-05T13:35:59.711Z,5.90
2022-12-05T13:38:59.664Z,5.90
2022-12-05T13:42:05.794Z,5.90
2022-12-05T13:45:01.204Z,5.90
2022-12-05T13:48:01.608Z,5.90
2022-12-05T13:51:01.425Z,5.90
2022-12-05T13:53:47.708Z,5.90
2022-12-05T13:56:14.535Z,5.90
2022-12-05T13:58:46.962Z,5.90
2022-12-05T14:01:33.956Z,5.90
2022-12-05T14:04:04.995Z,6.00
2022-12-05T14:06:40.693Z,6.00
2022-12-05T14:09:20.174Z,6.00
2022-12-05T14:12:12.277Z,6.00
2022-12-05T14:14:57.271Z,6.00
2022-12-05T14:17:27.818Z,6.00
2022-12-05T14:20:25.482Z,6.00
2022-12-05T14:23:10.886Z,6.00
2022-12-05T14:26:18.113Z,6.00
2022-12-05T14:28:56.811Z,6.00
2022-12-05T14:31:43.874Z,6.00
2022-12-05T14:34:25.040Z,6.00
2022-12-05T14:37:02.345Z,6.00
2022-12-05T14:39:42.441Z,6.00
2022-12-05T14:42:50.427Z,5.90
2022-12-05T14:45:25.858Z,6.00
2022-12-05T14:47:58.160Z,6.00
2022-12-05T14:50:41.465Z,6.00
2022-12-05T14:53:16.865Z,6.00
2022-12-05T14:55:45.948Z,6.00
2022-12-05T14:58:24.078Z,6.00
2022-12-05T15:01:05.628Z,6.00
2022-12-05T15:03:40.420Z,6.00
2022-12-05T15:06:15.472Z,6.00
2022-12-05T15:08:49.329Z,6.00
2022-12-05T15:11:30.464Z,6.00
2022-12-05T15:14:03.086Z,6.00
2022-12-05T15:16:31.666Z,6.00
2022-12-05T15:19:03.800Z,6.00
2022-12-05T15:21:42.281Z,6.00
2022-12-05T15:24:19.809Z,6.00
2022-12-05T15:26:57.757Z,5.90
2022-12-05T15:29:30.420Z,6.00
2022-12-05T15:32:00.111Z,5.90
2022-12-05T15:34:43.691Z,5.90
2022-12-05T15:37:22.324Z,5.90
2022-12-05T15:40:07.352Z,5.90
2022-12-05T15:42:51.591Z,6.00
2022-12-05T15:45:23.388Z,5.90
2022-12-05T15:47:57.341Z,5.90
2022-12-05T15:50:33.164Z,5.90
2022-12-05T15:53:15.515Z,5.90
2022-12-05T15:55:51.340Z,5.90
2022-12-05T15:58:29.308Z,5.90
2022-12-05T16:01:05.287Z,5.90
2022-12-05T16:03:35.084Z,5.90
2022-12-05T16:06:06.603Z,5.90
2022-12-05T16:08:41.866Z,6.00
2022-12-05T16:11:12.430Z,6.00
2022-12-05T16:13:48.182Z,6.00
2022-12-05T16:16:19.209Z,6.00
2022-12-05T16:18:57.786Z,6.00
2022-12-05T16:21:38.561Z,6.00
2022-12-05T16:24:19.868Z,6.00
2022-12-05T16:27:03.461Z,6.00
2022-12-05T16:29:33.103Z,6.00
2022-12-05T16:32:06.997Z,6.00
2022-12-05T16:34:34.658Z,6.10
2022-12-05T16:37:01.606Z,6.10
2022-12-05T16:39:28.836Z,6.10
2022-12-05T16:41:55.889Z,6.10
2022-12-05T16:44:28.797Z,6.10
2022-12-05T16:46:56.722Z,6.10
2022-12-05T16:49:42.628Z,6.10
2022-12-05T16:52:15.095Z,6.00
2022-12-05T16:54:45.942Z,6.00
2022-12-05T16:57:15.160Z,6.10
2022-12-05T16:59:43.627Z,6.00
2022-12-05T17:02:15.491Z,6.10
2022-12-05T17:04:42.571Z,6.10
2022-12-05T17:07:09.798Z,6.10
2022-12-05T17:09:36.786Z,6.10
2022-12-05T17:12:22.884Z,6.10
2022-12-05T17:14:49.937Z,6.10
2022-12-05T17:17:18.306Z,6.10
2022-12-05T17:19:45.246Z,6.10
2022-12-05T17:22:14.452Z,6.10
2022-12-05T17:24:41.441Z,6.10
2022-12-05T17:27:12.389Z,6.10
2022-12-05T17:29:39.232Z,6.10
2022-12-05T17:32:06.322Z,6.10
2022-12-05T17:34:33.108Z,6.10
2022-12-05T17:37:00.277Z,6.10
2022-12-05T17:39:28.802Z,6.10
2022-12-05T17:41:56.043Z,6.10
2022-12-05T17:44:22.889Z,6.10
2022-12-05T17:46:49.765Z,6.10
2022-12-05T17:49:18.022Z,6.10
2022-12-05T17:52:13.534Z,6.10
2022-12-05T17:54:32.380Z,6.10
2022-12-05T17:56:59.183Z,6.20
2022-12-05T17:59:25.998Z,6.10
2022-12-05T18:01:52.761Z,6.20
2022-12-05T18:04:23.135Z,6.10
2022-12-05T18:06:50.791Z,6.10
2022-12-05T18:09:17.618Z,6.20
2022-12-05T18:11:44.626Z,6.20
2022-12-05T18:14:11.567Z,6.20
2022-12-05T18:16:38.451Z,6.20
2022-12-05T18:19:05.351Z,6.20
2022-12-05T18:21:32.115Z,6.20
2022-12-05T18:23:59.801Z,6.10
2022-12-05T18:26:26.732Z,6.20
2022-12-05T18:28:56.429Z,6.20
2022-12-05T18:31:23.916Z,6.20
2022-12-05T18:33:51.454Z,6.20
2022-12-05T18:36:20.621Z,6.20
2022-12-05T18:38:55.389Z,6.20
2022-12-05T18:41:24.013Z,6.20
2022-12-05T18:43:51.266Z,6.30
2022-12-05T18:46:18.161Z,6.30
2022-12-05T18:48:47.702Z,6.30
2022-12-05T18:51:23.491Z,6.30
2022-12-05T18:53:52.864Z,6.20
2022-12-05T18:56:26.625Z,6.20
2022-12-05T18:58:54.504Z,6.20
2022-12-05T19:01:21.564Z,6.20
2022-12-05T19:03:48.442Z,6.20
2022-12-05T19:06:18.386Z,6.30
2022-12-05T19:08:46.243Z,6.30
2022-12-05T19:11:17.785Z,6.20
2022-12-05T19:13:44.680Z,6.20
2022-12-05T19:16:19.226Z,6.20
2022-12-05T19:18:47.275Z,6.30
2022-12-05T19:21:14.232Z,6.20
2022-12-05T19:23:41.620Z,6.20
2022-12-05T19:26:09.547Z,6.30
2022-12-05T19:28:37.505Z,6.30
2022-12-05T19:31:05.650Z,6.30
2022-12-05T19:33:43.596Z,6.30
2022-12-05T19:36:17.370Z,6.30
2022-12-05T19:38:45.703Z,6.30
2022-12-05T19:41:14.722Z,6.30
2022-12-05T19:43:43.325Z,6.30
2022-12-05T19:46:19.608Z,6.30
2022-12-05T19:48:47.536Z,6.30
2022-12-05T19:51:14.725Z,6.30
2022-12-05T19:53:43.903Z,6.30
2022-12-05T19:56:16.813Z,6.30
2022-12-05T19:58:44.506Z,6.30
2022-12-05T20:01:14.424Z,6.30
2022-12-05T20:03:42.213Z,6.30
2022-12-05T20:06:11.529Z,6.30
2022-12-05T20:08:39.051Z,6.30
2022-12-05T20:11:13.133Z,6.30
2022-12-05T20:13:48.793Z,6.40
2022-12-05T20:16:18.942Z,6.40
2022-12-05T20:18:46.277Z,6.40
2022-12-05T20:21:15.203Z,6.40
2022-12-05T20:23:42.652Z,6.30
2022-12-05T20:26:12.430Z,6.30
2022-12-05T20:28:39.984Z,6.30
2022-12-05T20:31:15.577Z,6.30
2022-12-05T20:33:43.224Z,6.30
2022-12-05T20:36:15.758Z,6.40
2022-12-05T20:38:42.944Z,6.30
2022-12-05T20:41:12.210Z,6.40
2022-12-05T20:43:39.124Z,6.40
2022-12-05T20:46:10.212Z,6.40
2022-12-05T20:48:37.463Z,6.40
2022-12-05T20:51:11.380Z,6.40
2022-12-05T20:53:41.044Z,6.40
2022-12-05T20:56:22.730Z,6.40
2022-12-05T20:58:52.091Z,6.30
2022-12-05T21:01:21.102Z,6.40
2022-12-05T21:03:52.322Z,6.40
2022-12-05T21:06:23.650Z,6.30
2022-12-05T21:08:51.418Z,6.40
2022-12-05T21:11:19.020Z,6.40
2022-12-05T21:13:46.160Z,6.40
2022-12-05T21:16:17.022Z,6.40
2022-12-05T21:18:44.826Z,6.40
2022-12-05T21:21:20.175Z,6.40
2022-12-05T21:23:51.985Z,6.40
2022-12-05T21:26:18.889Z,6.40
2022-12-05T21:28:46.250Z,6.40
2022-12-05T21:31:14.967Z,6.40
2022-12-05T21:33:46.078Z,6.40
2022-12-05T21:36:12.907Z,6.40
2022-12-05T21:38:39.812Z,6.40
2022-12-05T21:41:07.344Z,6.30
2022-12-05T21:43:35.111Z,6.40
2022-12-05T21:46:02.252Z,6.40
2022-12-05T21:48:29.073Z,6.40
2022-12-05T21:50:56.439Z,6.40
2022-12-05T21:53:23.619Z,6.40
2022-12-05T21:56:01.078Z,6.40
2022-12-05T21:58:28.404Z,6.40
2022-12-05T22:00:55.351Z,6.40
2022-12-05T22:03:22.380Z,6.50
2022-12-05T22:05:49.640Z,6.50
2022-12-05T22:08:16.787Z,6.50
2022-12-05T22:10:43.716Z,6.40
2022-12-05T22:13:10.553Z,6.40
2022-12-05T22:15:37.527Z,6.40
2022-12-05T22:18:04.460Z,6.40
2022-12-05T22:20:31.545Z,6.40
2022-12-05T22:22:58.354Z,6.40
2022-12-05T22:25:25.163Z,6.50
2022-12-05T22:27:55.267Z,6.50
2022-12-05T22:30:22.106Z,6.40
2022-12-05T22:32:49.036Z,6.50
2022-12-05T22:35:18.848Z,6.40
2022-12-05T22:37:45.652Z,6.40
2022-12-05T22:40:12.668Z,6.50
2022-12-05T22:42:39.559Z,6.50
2022-12-05T22:45:07.560Z,6.40
2022-12-05T22:47:34.392Z,6.40
2022-12-05T22:50:01.605Z,6.40
2022-12-05T22:52:28.866Z,6.40
2022-12-05T22:54:55.681Z,6.50
2022-12-05T22:57:22.547Z,6.50
2022-12-05T22:59:49.300Z,6.50
2022-12-05T23:02:16.101Z,6.50
2022-12-05T23:04:42.945Z,6.40
2022-12-05T23:07:09.800Z,6.50
2022-12-05T23:09:36.603Z,6.40
2022-12-05T23:12:03.496Z,6.40
2022-12-05T23:14:30.316Z,6.40
2022-12-05T23:16:57.124Z,6.40
2022-12-05T23:19:24.020Z,6.40
2022-12-05T23:21:50.872Z,6.40
2022-12-05T23:24:17.710Z,6.40
2022-12-05T23:26:45.681Z,6.50
2022-12-05T23:29:13.958Z,6.50
2022-12-05T23:31:42.434Z,6.50
2022-12-05T23:34:09.946Z,6.50
2022-12-05T23:36:37.212Z,6.50
2022-12-05T23:39:04.356Z,6.50
2022-12-05T23:41:31.348Z,6.50
2022-12-05T23:43:58.461Z,6.40
2022-12-05T23:46:27.733Z,6.40
2022-12-05T23:48:56.008Z,6.40
2022-12-05T23:51:25.587Z,6.40
2022-12-05T23:53:58.267Z,6.50
2022-12-05T23:56:28.522Z,6.50
2022-12-05T23:58:56.311Z,6.50
